x

La Perouse Bank (46206) Wave Buoy

12:00 - Thu 2nd Oct 2014 All times are PDT. -7 hours from GMT.

  • Sig Wave height 5.2ft
  • Peak Period 9s
  • Wind
    7mph, 9mph gusts
  • Sea Temp 59°f
  • Aire Temp 58°f
  • Sea Pressure 1023.4mb
  • La Perouse Bank
  • La Perouse Bank

More Historic Weather Station data

Upgrade to MSW Pro to gain access to the past 30 days of data for over 8000 Wavebouys and Weather Stations around the globe.

Join Pro

Comparision Forecast

View Surf forecast
   
jue 10/02 12:00 5ft 9s 7 9 mph 1023.4mb 59f 58f
mié 10/01 11:00 5ft 9s 7 9 mph 1023.5mb 59f 58f
10:00 5ft 10s 7 9 mph 1023.2mb 59f 59f
9:00 5ft 9s 7 9 mph 1022.8mb 59f 59f
8:00 5ft 8s 7 9 mph 1022.8mb 59f 58f
7:00 4.5ft 8s 7 9 mph 1022.5mb 59f 58f
6:00 5ft 9s 7 9 mph 1022.5mb 59f 58f
5:00 4.5ft 8s 7 9 mph 1022.7mb 59f 58f
4:00 4.5ft 9s 9 11 mph 1023.1mb 59f 58f
3:00 4.5ft 9s 9 11 mph 1023.2mb 59f 58f
2:00 4.5ft 8s 9 11 mph 1023.3mb 59f 58f
1:00 4.5ft 10s 9 11 mph 1023.6mb 59f 58f
12:00 4.5ft 8s 11 13 mph 1023.6mb 59f 58f
11:00 5.5ft 9s 9 11 mph 1023.5mb 59f 58f
10:00 5ft 10s 13 16 mph 1023.5mb 59f 57f
9:00 6ft 9s 13 16 mph 1023.3mb 59f 57f
8:00 7ft 9s 13 18 mph 1022.9mb 59f 57f
7:00 7ft 10s 16 20 mph 1022.7mb 59f 57f
6:00 7ft 9s 18 20 mph 1022.4mb 59f 58f
5:00 7.5ft 10s 16 20 mph 1022.2mb 59f 58f
4:00 7.5ft 9s 16 20 mph 1022.2mb 59f 58f
3:00 7.5ft 10s 18 22 mph 1022.1mb 59f 58f
2:00 8ft 10s 18 22 mph 1022mb 59f 58f
1:00 8ft 10s 18 22 mph 1022.1mb 59f 58f
12:00 9ft 10s 20 25 mph 1021.7mb 59f 58f
mar 09/30 11:00 9ft 10s 18 22 mph 1021.6mb 59f 58f
10:00 8ft 11s 20 25 mph 1021.6mb 59f 58f
9:00 8ft 11s 22 29 mph 1021.2mb 59f 58f
8:00 8ft 10s 22 27 mph 1020.8mb 59f 58f
7:00 9ft 11s 22 27 mph 1020.5mb 59f 58f
6:00 8.5ft 11s 22 27 mph 1020.5mb 60f 59f
5:00 8.5ft 11s 18 22 mph 1020.6mb 60f 59f
3:00 8.5ft 10s 20 25 mph 1020.2mb 60f 59f
2:00 8.5ft 10s 18 20 mph 1020.3mb 59f 59f
1:00 9ft 11s 16 20 mph 1020.6mb 59f 59f
12:00 9ft 11s 13 18 mph 1020.2mb 59f 58f
11:00 10ft 10s 13 18 mph 1019.9mb 59f 59f
10:00 9ft 11s 11 16 mph 1019.6mb 59f 58f
9:00 8.5ft 11s 11 16 mph 1019.1mb 59f 58f
7:00 9ft 11s 13 16 mph 1018.1mb 59f 57f
6:00 9ft 11s 11 13 mph 1017.7mb 59f 58f
5:00 8.5ft 11s 11 13 mph 1017.3mb 59f 58f
4:00 7.5ft 11s 13 18 mph 1017mb 59f 58f
3:00 8ft 11s 11 16 mph 1016.7mb 59f 58f
2:00 7ft 10s 13 16 mph 1016.4mb 59f 58f
1:00 7ft 11s 13 18 mph 1016mb 59f 58f
12:00 8ft 10s 13
mph
1015.7mb 59f 59f
lun 09/29 11:00 7.5ft 10s 13 16 mph 1015.5mb 58f 59f
10:00 7ft 11s 13 18 mph 1015.2mb 58f 59f
9:00 7.5ft 11s 9 13 mph 1014.9mb 58f 59f
8:00 8ft 10s 11 13 mph 1014.6mb 58f 58f
7:00 8ft 12s 11 13 mph 1014mb 57f 59f
6:00 8ft 11s 11 13 mph 1013.6mb 57f 59f
5:00 8ft 11s 13 16 mph 1013.1mb 58f 59f
4:00 8ft 10s 11 13 mph 1012.9mb 58f 59f
3:00 7ft 10s 13 18 mph 1012.9mb 58f 59f
2:00 7.5ft 12s 11 13 mph 1012.7mb 57f 59f
1:00 7.5ft 10s 11 13 mph 1012.7mb 57f 59f
12:00 7ft 12s 13 16 mph 1012.5mb 57f 59f
11:00 7.5ft 12s 11 16 mph 1012.3mb 57f 58f
10:00 7.5ft 10s 16 20 mph 1011.8mb 57f 58f
9:00 7.5ft 9s 18 22 mph 1011.1mb 57f 58f
8:00 7ft 13s 11 16 mph 1010.8mb 58f 59f
7:00 7ft 10s 7 11 mph 1010.6mb 57f 58f
6:00 7ft 13s 9 13 mph 1010.7mb 57f 58f
5:00 7ft 10s 9 11 mph 1010.7mb 57f 58f
4:00 6.5ft 10s 9
mph
1011mb 57f 58f
3:00 6ft 9s 4 9 mph 1011.6mb 57f 58f
2:00 5.5ft 9s 7 11 mph 1012mb 57f 58f
1:00 5ft 9s 4 7 mph 1012.6mb 57f 57f
12:00 4.5ft 10s 2
mph
1013.1mb 57f 58f
dom 09/28 11:00 4.5ft 8s 7 9 mph 1013.2mb 57f 58f
10:00 4.5ft 8s 2 4 mph 1014mb 57f 59f
9:00 4ft 7s  -  2 mph 1014.1mb 57f 59f
8:00 3.5ft 7s 7 9 mph 1014.1mb 57f 59f
7:00 3.5ft 7s 7 9 mph 1014.3mb 58f 58f
6:00 3.5ft 7s 4 7 mph 1014.6mb 58f 59f
5:00 3ft 7s 4
mph
1015mb 58f 59f
4:00 2.5ft 7s 4 7 mph 1015.5mb 58f 58f
3:00 3.5ft 8s 4 7 mph 1016mb 58f 56f
2:00 3.5ft 8s 4 7 mph 1016.5mb 58f 55f
1:00 3.5ft 7s 2
mph
1017.2mb 58f 55f
12:00 3.5ft 8s 4
mph
1017.4mb 58f 54f
11:00 3.5ft 7s 4 7 mph 1017.6mb 57f 55f
10:00 3.5ft 7s 2 4 mph 1018mb 57f 56f
9:00 3.5ft 7s 2
mph
1018mb 56f 58f